TimeCDT,TemperatureF,Dew PointF,Humidity,Sea Level PressureIn,VisibilityMPH,Wind Direction,Wind SpeedMPH,Gust SpeedMPH,PrecipitationIn,Events,Conditions,WindDirDegrees,DateUTC
12:15 AM,50.5,30.4,46,29.96,10.0,NNW,4.6,-,N/A,,Clear,330,2013-04-01 05:15:00
12:35 AM,49.5,30.0,47,29.97,10.0,NNW,8.1,-,N/A,,Clear,340,2013-04-01 05:35:00
12:55 AM,48.6,29.3,47,29.97,10.0,North,9.2,16.1,N/A,,Clear,350,2013-04-01 05:55:00
1:15 AM,47.7,29.1,49,29.98,10.0,North,12.7,18.4,N/A,,Clear,350,2013-04-01 06:15:00
1:35 AM,46.8,28.6,49,29.99,10.0,NNW,10.4,19.6,N/A,,Clear,340,2013-04-01 06:35:00
1:55 AM,46.4,27.3,47,30.00,10.0,NNW,11.5,18.4,N/A,,Scattered Clouds,330,2013-04-01 06:55:00
2:15 AM,45.7,27.3,49,30.01,10.0,NNW,11.5,18.4,N/A,,Overcast,340,2013-04-01 07:15:00
2:35 AM,44.8,27.9,52,30.02,10.0,NNW,9.2,-,N/A,,Scattered Clouds,340,2013-04-01 07:35:00
2:55 AM,44.4,28.4,53,30.02,10.0,North,12.7,21.9,N/A,,Mostly Cloudy,350,2013-04-01 07:55:00
3:15 AM,44.2,26.6,50,30.03,10.0,NNW,13.8,24.2,N/A,,Overcast,340,2013-04-01 08:15:00
3:35 AM,43.9,27.3,52,30.03,10.0,NNW,11.5,18.4,N/A,,Overcast,340,2013-04-01 08:35:00
3:55 AM,43.7,27.9,54,30.03,10.0,North,6.9,-,N/A,,Overcast,360,2013-04-01 08:55:00
4:15 AM,42.8,26.6,53,30.04,10.0,North,6.9,-,N/A,,Mostly Cloudy,350,2013-04-01 09:15:00
4:35 AM,42.3,24.3,49,30.05,10.0,NNW,5.8,16.1,N/A,,Mostly Cloudy,340,2013-04-01 09:35:00
5:15 AM,42.1,21.4,44,30.07,10.0,NNW,8.1,-,N/A,,Overcast,340,2013-04-01 10:15:00
5:35 AM,41.5,21.9,46,30.09,10.0,NNW,5.8,-,N/A,,Overcast,330,2013-04-01 10:35:00
5:55 AM,41.0,22.8,48,30.10,10.0,NNW,8.1,-,N/A,,Overcast,330,2013-04-01 10:55:00
6:15 AM,40.6,21.7,47,30.11,10.0,NNW,6.9,-,N/A,,Overcast,330,2013-04-01 11:15:00
6:35 AM,40.3,21.6,47,30.12,10.0,NW,4.6,-,N/A,,Overcast,320,2013-04-01 11:35:00
6:55 AM,40.1,21.7,48,30.13,10.0,NNW,5.8,-,N/A,,Overcast,340,2013-04-01 11:55:00
7:50 AM,39.2,24.8,56,30.16,10.0,NNW,13.8,-,N/A,,Overcast,340,2013-04-01 12:50:00
8:50 AM,41.0,21.2,45,30.18,10.0,North,13.8,-,N/A,,Scattered Clouds,350,2013-04-01 13:50:00
9:50 AM,42.8,23.0,46,30.19,10.0,NNW,11.5,-,N/A,,Scattered Clouds,330,2013-04-01 14:50:00
10:50 AM,42.8,21.2,42,30.21,10.0,NNW,17.3,-,N/A,,Scattered Clouds,340,2013-04-01 15:50:00
2:50 PM,48.2,17.6,30,30.19,10.0,NNW,12.7,-,N/A,,Scattered Clouds,330,2013-04-01 19:50:00
4:50 PM,50.0,14.0,24,30.19,10.0,NW,13.8,20.7,N/A,,Scattered Clouds,320,2013-04-01 21:50:00
10:15 PM,41.0,17.4,39,30.22,10.0,Calm,Calm,-,N/A,,Clear,0,2013-04-02 03:15:00
10:35 PM,40.6,16.5,38,30.22,10.0,North,4.6,-,N/A,,Clear,350,2013-04-02 03:35:00
10:55 PM,40.5,15.6,37,30.23,10.0,NNW,5.8,-,N/A,,Clear,340,2013-04-02 03:55:00
11:15 PM,40.1,16.0,38,30.23,10.0,NNW,4.6,-,N/A,,Clear,340,2013-04-02 04:15:00
11:35 PM,39.6,16.5,39,30.23,10.0,NNW,4.6,-,N/A,,Clear,330,2013-04-02 04:35:00
11:55 PM,39.2,15.8,39,30.24,10.0,NNW,4.6,-,N/A,,Clear,330,2013-04-02 04:55:00